Aviation Digital Data Service (ADDS)

Output produced by TAFs form (0845 UTC 18 April 2015)
found at http://www.aviationweather.gov/adds/tafs/
 
KBJC 180836Z AUTO 35008KT 10SM BKN021 OVC044 03/02 A3000 RMK AO2
KBJC 180536Z 1806/1906 33008KT P6SM VCSH SCT010 BKN025 OVC080 
     TEMPO 1807/1809 3SM -SNRA BR BKN010 
     FM180900 31008KT P6SM VCSH SCT025 BKN050 
     FM181200 29006KT P6SM VCFG SCT010 SCT030 
     TEMPO 1812/1815 1SM BR BKN010 
     FM181600 29008KT P6SM VCSH SCT030 SCT080 
     FM182000 34011KT P6SM VCSH SCT050 BKN080 
     PROB30 1821/1903 -SHRA SCT035 BKN050